sensor_id;sensor_type;location;lat;lon;timestamp;P1;durP1;ratioP1;P2;durP2;ratioP2
28625;SDS011;18905;42.668;23.364;2022-08-19T00:00:16;9.20;;;5.72;;
28625;SDS011;18905;42.668;23.364;2022-08-19T00:02:43;9.95;;;6.10;;
28625;SDS011;18905;42.668;23.364;2022-08-19T00:05:09;15.65;;;6.47;;
28625;SDS011;18905;42.668;23.364;2022-08-19T00:07:36;10.90;;;5.65;;
28625;SDS011;18905;42.668;23.364;2022-08-19T00:10:03;14.48;;;5.97;;
28625;SDS011;18905;42.668;23.364;2022-08-19T00:12:33;8.45;;;6.05;;
28625;SDS011;18905;42.668;23.364;2022-08-19T00:14:58;10.30;;;6.05;;
28625;SDS011;18905;42.668;23.364;2022-08-19T00:17:24;8.85;;;5.70;;
28625;SDS011;18905;42.668;23.364;2022-08-19T00:19:49;13.13;;;6.22;;
28625;SDS011;18905;42.668;23.364;2022-08-19T00:22:15;9.27;;;6.25;;
28625;SDS011;18905;42.668;23.364;2022-08-19T00:24:42;9.20;;;6.30;;
28625;SDS011;18905;42.668;23.364;2022-08-19T00:27:08;8.02;;;5.70;;
28625;SDS011;18905;42.668;23.364;2022-08-19T00:29:34;10.60;;;6.15;;
28625;SDS011;18905;42.668;23.364;2022-08-19T00:31:59;10.10;;;6.15;;
28625;SDS011;18905;42.668;23.364;2022-08-19T00:34:25;8.88;;;6.05;;
28625;SDS011;18905;42.668;23.364;2022-08-19T00:36:55;11.45;;;5.95;;
28625;SDS011;18905;42.668;23.364;2022-08-19T00:39:21;11.85;;;5.82;;
28625;SDS011;18905;42.668;23.364;2022-08-19T00:41:47;16.02;;;6.75;;
28625;SDS011;18905;42.668;23.364;2022-08-19T00:44:19;7.90;;;5.95;;
28625;SDS011;18905;42.668;23.364;2022-08-19T00:46:48;11.82;;;6.00;;
28625;SDS011;18905;42.668;23.364;2022-08-19T00:49:30;9.93;;;6.40;;
28625;SDS011;18905;42.668;23.364;2022-08-19T00:52:04;13.60;;;6.23;;
28625;SDS011;18905;42.668;23.364;2022-08-19T00:54:34;11.05;;;6.40;;
28625;SDS011;18905;42.668;23.364;2022-08-19T00:57:02;12.05;;;6.60;;
28625;SDS011;18905;42.668;23.364;2022-08-19T00:59:31;10.07;;;6.60;;
28625;SDS011;18905;42.668;23.364;2022-08-19T01:02:00;13.40;;;6.65;;
28625;SDS011;18905;42.668;23.364;2022-08-19T01:04:26;12.13;;;6.35;;
28625;SDS011;18905;42.668;23.364;2022-08-19T01:06:51;12.68;;;7.00;;
28625;SDS011;18905;42.668;23.364;2022-08-19T01:09:17;12.43;;;7.03;;
28625;SDS011;18905;42.668;23.364;2022-08-19T01:11:42;14.55;;;7.05;;
28625;SDS011;18905;42.668;23.364;2022-08-19T01:14:10;11.50;;;6.80;;
28625;SDS011;18905;42.668;23.364;2022-08-19T01:16:36;12.48;;;6.50;;
28625;SDS011;18905;42.668;23.364;2022-08-19T01:19:09;9.90;;;6.38;;
28625;SDS011;18905;42.668;23.364;2022-08-19T01:21:42;12.27;;;6.68;;
28625;SDS011;18905;42.668;23.364;2022-08-19T01:24:13;11.57;;;6.75;;
28625;SDS011;18905;42.668;23.364;2022-08-19T01:26:40;9.38;;;6.15;;
28625;SDS011;18905;42.668;23.364;2022-08-19T01:29:07;12.80;;;7.15;;
28625;SDS011;18905;42.668;23.364;2022-08-19T01:31:33;9.27;;;6.63;;
28625;SDS011;18905;42.668;23.364;2022-08-19T01:34:00;22.55;;;7.90;;
28625;SDS011;18905;42.668;23.364;2022-08-19T01:38:54;15.60;;;7.13;;
28625;SDS011;18905;42.668;23.364;2022-08-19T01:41:20;13.43;;;7.25;;
28625;SDS011;18905;42.668;23.364;2022-08-19T01:43:48;8.60;;;6.55;;
28625;SDS011;18905;42.668;23.364;2022-08-19T01:46:15;12.13;;;7.18;;
28625;SDS011;18905;42.668;23.364;2022-08-19T01:48:41;16.85;;;6.90;;
28625;SDS011;18905;42.668;23.364;2022-08-19T01:51:08;8.70;;;6.32;;
28625;SDS011;18905;42.668;23.364;2022-08-19T01:53:34;16.08;;;7.45;;
28625;SDS011;18905;42.668;23.364;2022-08-19T01:56:00;11.45;;;7.13;;
28625;SDS011;18905;42.668;23.364;2022-08-19T01:58:29;11.50;;;7.38;;
28625;SDS011;18905;42.668;23.364;2022-08-19T02:01:00;9.52;;;7.07;;
28625;SDS011;18905;42.668;23.364;2022-08-19T02:03:26;16.98;;;7.60;;
28625;SDS011;18905;42.668;23.364;2022-08-19T02:05:54;14.27;;;7.30;;
28625;SDS011;18905;42.668;23.364;2022-08-19T02:08:30;16.10;;;7.90;;
28625;SDS011;18905;42.668;23.364;2022-08-19T02:10:57;21.55;;;7.70;;
28625;SDS011;18905;42.668;23.364;2022-08-19T02:13:23;16.88;;;6.88;;
28625;SDS011;18905;42.668;23.364;2022-08-19T02:15:50;8.57;;;6.72;;
28625;SDS011;18905;42.668;23.364;2022-08-19T02:18:15;10.10;;;6.75;;
28625;SDS011;18905;42.668;23.364;2022-08-19T02:20:41;11.38;;;7.28;;
28625;SDS011;18905;42.668;23.364;2022-08-19T02:23:08;10.90;;;6.95;;
28625;SDS011;18905;42.668;23.364;2022-08-19T02:25:34;12.27;;;7.70;;
28625;SDS011;18905;42.668;23.364;2022-08-19T02:28:00;14.63;;;7.78;;
28625;SDS011;18905;42.668;23.364;2022-08-19T02:30:26;10.98;;;7.22;;
28625;SDS011;18905;42.668;23.364;2022-08-19T02:32:52;10.23;;;7.15;;
28625;SDS011;18905;42.668;23.364;2022-08-19T02:35:17;14.82;;;7.05;;
28625;SDS011;18905;42.668;23.364;2022-08-19T02:37:43;10.30;;;6.60;;
28625;SDS011;18905;42.668;23.364;2022-08-19T02:40:29;17.48;;;7.15;;
28625;SDS011;18905;42.668;23.364;2022-08-19T02:42:58;11.13;;;7.22;;
28625;SDS011;18905;42.668;23.364;2022-08-19T02:45:24;12.07;;;7.68;;
28625;SDS011;18905;42.668;23.364;2022-08-19T02:47:49;12.18;;;7.00;;
28625;SDS011;18905;42.668;23.364;2022-08-19T02:50:15;13.57;;;8.15;;
28625;SDS011;18905;42.668;23.364;2022-08-19T02:52:40;13.52;;;7.47;;
28625;SDS011;18905;42.668;23.364;2022-08-19T02:55:06;10.88;;;6.10;;
28625;SDS011;18905;42.668;23.364;2022-08-19T02:57:32;17.13;;;8.32;;
28625;SDS011;18905;42.668;23.364;2022-08-19T02:59:58;10.68;;;6.60;;
28625;SDS011;18905;42.668;23.364;2022-08-19T03:02:24;17.23;;;7.63;;
28625;SDS011;18905;42.668;23.364;2022-08-19T03:04:49;10.75;;;7.47;;
28625;SDS011;18905;42.668;23.364;2022-08-19T03:07:16;18.08;;;7.70;;
28625;SDS011;18905;42.668;23.364;2022-08-19T03:09:43;15.40;;;7.50;;
28625;SDS011;18905;42.668;23.364;2022-08-19T03:12:09;17.63;;;6.75;;
28625;SDS011;18905;42.668;23.364;2022-08-19T03:14:35;16.48;;;8.07;;
28625;SDS011;18905;42.668;23.364;2022-08-19T03:17:02;13.90;;;8.20;;
28625;SDS011;18905;42.668;23.364;2022-08-19T03:19:29;15.05;;;7.35;;
28625;SDS011;18905;42.668;23.364;2022-08-19T03:21:56;12.68;;;7.03;;
28625;SDS011;18905;42.668;23.364;2022-08-19T03:24:22;14.23;;;7.15;;
28625;SDS011;18905;42.668;23.364;2022-08-19T03:26:52;11.00;;;7.20;;
28625;SDS011;18905;42.668;23.364;2022-08-19T03:29:22;13.20;;;7.25;;
28625;SDS011;18905;42.668;23.364;2022-08-19T03:31:48;11.43;;;6.45;;
28625;SDS011;18905;42.668;23.364;2022-08-19T03:34:19;10.80;;;7.38;;
28625;SDS011;18905;42.668;23.364;2022-08-19T03:36:54;18.63;;;7.35;;
28625;SDS011;18905;42.668;23.364;2022-08-19T03:39:22;14.63;;;7.78;;
28625;SDS011;18905;42.668;23.364;2022-08-19T03:41:49;11.63;;;7.72;;
28625;SDS011;18905;42.668;23.364;2022-08-19T03:44:18;8.10;;;7.07;;
28625;SDS011;18905;42.668;23.364;2022-08-19T03:46:48;11.25;;;7.68;;
28625;SDS011;18905;42.668;23.364;2022-08-19T03:49:15;12.48;;;7.95;;
28625;SDS011;18905;42.668;23.364;2022-08-19T03:51:42;11.73;;;7.80;;
28625;SDS011;18905;42.668;23.364;2022-08-19T03:54:10;17.85;;;7.85;;
28625;SDS011;18905;42.668;23.364;2022-08-19T03:56:38;20.80;;;7.55;;
28625;SDS011;18905;42.668;23.364;2022-08-19T03:59:05;12.32;;;6.95;;
28625;SDS011;18905;42.668;23.364;2022-08-19T04:01:34;17.50;;;7.43;;
28625;SDS011;18905;42.668;23.364;2022-08-19T04:04:00;19.33;;;8.07;;
28625;SDS011;18905;42.668;23.364;2022-08-19T04:06:27;14.10;;;8.32;;
28625;SDS011;18905;42.668;23.364;2022-08-19T04:08:55;13.13;;;7.45;;
28625;SDS011;18905;42.668;23.364;2022-08-19T04:11:26;19.08;;;7.72;;
28625;SDS011;18905;42.668;23.364;2022-08-19T04:13:54;17.02;;;8.18;;
28625;SDS011;18905;42.668;23.364;2022-08-19T04:16:21;15.02;;;7.78;;
28625;SDS011;18905;42.668;23.364;2022-08-19T04:18:48;21.05;;;8.13;;
28625;SDS011;18905;42.668;23.364;2022-08-19T04:21:18;16.52;;;8.30;;
28625;SDS011;18905;42.668;23.364;2022-08-19T04:23:45;20.88;;;9.05;;
28625;SDS011;18905;42.668;23.364;2022-08-19T04:26:19;18.63;;;8.82;;
28625;SDS011;18905;42.668;23.364;2022-08-19T04:28:46;19.17;;;8.68;;
28625;SDS011;18905;42.668;23.364;2022-08-19T04:31:17;17.98;;;8.18;;
28625;SDS011;18905;42.668;23.364;2022-08-19T04:33:45;10.68;;;7.60;;
28625;SDS011;18905;42.668;23.364;2022-08-19T04:36:18;15.35;;;8.10;;
28625;SDS011;18905;42.668;23.364;2022-08-19T04:38:45;14.55;;;8.45;;
28625;SDS011;18905;42.668;23.364;2022-08-19T04:41:16;13.63;;;8.45;;
28625;SDS011;18905;42.668;23.364;2022-08-19T04:44:22;13.48;;;8.52;;
28625;SDS011;18905;42.668;23.364;2022-08-19T04:46:57;17.30;;;9.00;;
28625;SDS011;18905;42.668;23.364;2022-08-19T04:49:23;21.20;;;9.18;;
28625;SDS011;18905;42.668;23.364;2022-08-19T04:51:51;16.88;;;9.50;;
28625;SDS011;18905;42.668;23.364;2022-08-19T04:54:22;20.73;;;9.23;;
28625;SDS011;18905;42.668;23.364;2022-08-19T04:56:50;16.15;;;8.80;;
28625;SDS011;18905;42.668;23.364;2022-08-19T04:59:39;14.77;;;8.57;;
28625;SDS011;18905;42.668;23.364;2022-08-19T05:02:17;14.80;;;8.45;;
28625;SDS011;18905;42.668;23.364;2022-08-19T05:04:45;19.63;;;7.95;;
28625;SDS011;18905;42.668;23.364;2022-08-19T05:16:17;16.13;;;7.47;;
28625;SDS011;18905;42.668;23.364;2022-08-19T05:22:05;13.32;;;7.57;;
28625;SDS011;18905;42.668;23.364;2022-08-19T05:25:05;12.55;;;6.85;;
28625;SDS011;18905;42.668;23.364;2022-08-19T05:27:36;12.68;;;6.00;;
28625;SDS011;18905;42.668;23.364;2022-08-19T05:30:02;12.00;;;6.45;;
28625;SDS011;18905;42.668;23.364;2022-08-19T05:32:29;8.68;;;6.00;;
28625;SDS011;18905;42.668;23.364;2022-08-19T05:34:54;8.70;;;5.88;;
28625;SDS011;18905;42.668;23.364;2022-08-19T05:37:20;11.57;;;6.15;;
28625;SDS011;18905;42.668;23.364;2022-08-19T05:39:46;9.52;;;7.13;;
28625;SDS011;18905;42.668;23.364;2022-08-19T05:42:12;11.02;;;6.88;;
28625;SDS011;18905;42.668;23.364;2022-08-19T05:44:39;13.73;;;7.18;;
28625;SDS011;18905;42.668;23.364;2022-08-19T05:47:11;9.77;;;7.00;;
28625;SDS011;18905;42.668;23.364;2022-08-19T05:49:38;11.23;;;7.13;;
28625;SDS011;18905;42.668;23.364;2022-08-19T05:52:05;13.73;;;6.80;;
28625;SDS011;18905;42.668;23.364;2022-08-19T05:54:32;13.40;;;7.47;;
28625;SDS011;18905;42.668;23.364;2022-08-19T05:56:58;12.98;;;7.70;;
28625;SDS011;18905;42.668;23.364;2022-08-19T05:59:25;11.23;;;7.07;;
28625;SDS011;18905;42.668;23.364;2022-08-19T06:01:51;17.50;;;7.75;;
28625;SDS011;18905;42.668;23.364;2022-08-19T06:04:19;18.63;;;8.02;;
28625;SDS011;18905;42.668;23.364;2022-08-19T06:06:46;11.32;;;7.43;;
28625;SDS011;18905;42.668;23.364;2022-08-19T06:09:13;16.98;;;8.48;;
28625;SDS011;18905;42.668;23.364;2022-08-19T06:11:46;11.52;;;7.38;;
28625;SDS011;18905;42.668;23.364;2022-08-19T06:14:18;14.63;;;8.00;;
28625;SDS011;18905;42.668;23.364;2022-08-19T06:16:46;14.18;;;7.60;;
28625;SDS011;18905;42.668;23.364;2022-08-19T06:19:13;19.75;;;7.28;;
28625;SDS011;18905;42.668;23.364;2022-08-19T06:21:42;16.10;;;7.85;;
28625;SDS011;18905;42.668;23.364;2022-08-19T06:24:11;13.27;;;7.22;;
28625;SDS011;18905;42.668;23.364;2022-08-19T06:26:40;12.43;;;6.88;;
28625;SDS011;18905;42.668;23.364;2022-08-19T06:29:07;13.27;;;7.82;;
28625;SDS011;18905;42.668;23.364;2022-08-19T06:31:35;13.80;;;7.53;;
28625;SDS011;18905;42.668;23.364;2022-08-19T06:34:02;11.35;;;7.45;;
28625;SDS011;18905;42.668;23.364;2022-08-19T06:36:30;13.90;;;7.93;;
28625;SDS011;18905;42.668;23.364;2022-08-19T06:38:58;16.83;;;7.22;;
28625;SDS011;18905;42.668;23.364;2022-08-19T06:41:36;12.68;;;7.30;;
28625;SDS011;18905;42.668;23.364;2022-08-19T06:44:04;19.73;;;7.18;;
28625;SDS011;18905;42.668;23.364;2022-08-19T06:46:30;15.88;;;7.97;;
28625;SDS011;18905;42.668;23.364;2022-08-19T06:48:56;18.67;;;8.27;;
28625;SDS011;18905;42.668;23.364;2022-08-19T06:51:22;15.07;;;7.47;;
28625;SDS011;18905;42.668;23.364;2022-08-19T06:53:49;12.05;;;6.72;;
28625;SDS011;18905;42.668;23.364;2022-08-19T06:56:17;13.68;;;7.82;;
28625;SDS011;18905;42.668;23.364;2022-08-19T06:58:46;14.30;;;7.68;;
28625;SDS011;18905;42.668;23.364;2022-08-19T07:01:11;14.60;;;6.53;;
28625;SDS011;18905;42.668;23.364;2022-08-19T07:03:38;11.88;;;6.88;;
28625;SDS011;18905;42.668;23.364;2022-08-19T07:06:04;17.95;;;7.10;;
28625;SDS011;18905;42.668;23.364;2022-08-19T07:08:32;17.30;;;8.23;;
28625;SDS011;18905;42.668;23.364;2022-08-19T07:11:00;15.82;;;7.43;;
28625;SDS011;18905;42.668;23.364;2022-08-19T07:13:25;16.60;;;7.00;;
28625;SDS011;18905;42.668;23.364;2022-08-19T07:15:51;16.55;;;7.15;;
28625;SDS011;18905;42.668;23.364;2022-08-19T07:18:17;13.77;;;6.85;;
28625;SDS011;18905;42.668;23.364;2022-08-19T07:20:45;13.85;;;7.15;;
28625;SDS011;18905;42.668;23.364;2022-08-19T07:23:11;10.90;;;7.07;;
28625;SDS011;18905;42.668;23.364;2022-08-19T07:25:37;17.55;;;7.07;;
28625;SDS011;18905;42.668;23.364;2022-08-19T07:28:03;17.15;;;6.75;;
28625;SDS011;18905;42.668;23.364;2022-08-19T07:30:29;15.98;;;6.75;;
28625;SDS011;18905;42.668;23.364;2022-08-19T07:32:55;16.45;;;6.60;;
28625;SDS011;18905;42.668;23.364;2022-08-19T07:35:21;13.88;;;6.93;;
28625;SDS011;18905;42.668;23.364;2022-08-19T07:37:46;17.30;;;7.00;;
28625;SDS011;18905;42.668;23.364;2022-08-19T07:40:12;18.23;;;7.03;;
28625;SDS011;18905;42.668;23.364;2022-08-19T07:42:38;18.17;;;6.55;;
28625;SDS011;18905;42.668;23.364;2022-08-19T07:45:04;21.42;;;6.85;;
28625;SDS011;18905;42.668;23.364;2022-08-19T07:47:31;12.15;;;6.22;;
28625;SDS011;18905;42.668;23.364;2022-08-19T07:49:56;12.80;;;6.50;;
28625;SDS011;18905;42.668;23.364;2022-08-19T07:52:22;14.52;;;7.40;;
28625;SDS011;18905;42.668;23.364;2022-08-19T07:54:48;14.80;;;6.72;;
28625;SDS011;18905;42.668;23.364;2022-08-19T07:57:14;14.43;;;7.05;;
28625;SDS011;18905;42.668;23.364;2022-08-19T07:59:41;12.65;;;6.35;;
28625;SDS011;18905;42.668;23.364;2022-08-19T08:02:06;11.20;;;6.47;;
28625;SDS011;18905;42.668;23.364;2022-08-19T08:04:33;12.60;;;6.47;;
28625;SDS011;18905;42.668;23.364;2022-08-19T08:07:17;11.98;;;6.68;;
28625;SDS011;18905;42.668;23.364;2022-08-19T08:10:01;15.45;;;6.68;;
28625;SDS011;18905;42.668;23.364;2022-08-19T08:12:29;14.38;;;6.68;;
28625;SDS011;18905;42.668;23.364;2022-08-19T08:14:58;15.15;;;6.47;;
28625;SDS011;18905;42.668;23.364;2022-08-19T08:17:27;12.57;;;6.60;;
28625;SDS011;18905;42.668;23.364;2022-08-19T08:19:54;13.35;;;6.30;;
28625;SDS011;18905;42.668;23.364;2022-08-19T08:22:21;17.98;;;6.70;;
28625;SDS011;18905;42.668;23.364;2022-08-19T08:25:08;14.63;;;6.03;;
28625;SDS011;18905;42.668;23.364;2022-08-19T08:27:37;13.95;;;6.28;;
28625;SDS011;18905;42.668;23.364;2022-08-19T08:30:10;11.85;;;5.95;;
28625;SDS011;18905;42.668;23.364;2022-08-19T08:32:39;19.90;;;6.82;;
28625;SDS011;18905;42.668;23.364;2022-08-19T08:35:07;12.95;;;6.38;;
28625;SDS011;18905;42.668;23.364;2022-08-19T08:37:34;15.32;;;6.57;;
28625;SDS011;18905;42.668;23.364;2022-08-19T08:40:03;9.50;;;6.10;;
28625;SDS011;18905;42.668;23.364;2022-08-19T08:42:34;8.25;;;5.65;;
28625;SDS011;18905;42.668;23.364;2022-08-19T08:45:12;14.15;;;6.18;;
28625;SDS011;18905;42.668;23.364;2022-08-19T08:47:41;11.02;;;5.60;;
28625;SDS011;18905;42.668;23.364;2022-08-19T08:53:10;15.95;;;6.25;;
28625;SDS011;18905;42.668;23.364;2022-08-19T08:55:40;11.77;;;5.00;;
28625;SDS011;18905;42.668;23.364;2022-08-19T08:58:09;9.93;;;4.30;;
28625;SDS011;18905;42.668;23.364;2022-08-19T09:00:45;11.45;;;5.40;;
28625;SDS011;18905;42.668;23.364;2022-08-19T09:03:18;6.35;;;4.82;;
28625;SDS011;18905;42.668;23.364;2022-08-19T09:08:56;10.52;;;4.97;;
28625;SDS011;18905;42.668;23.364;2022-08-19T09:14:27;6.88;;;4.93;;
28625;SDS011;18905;42.668;23.364;2022-08-19T09:16:53;6.75;;;4.60;;
28625;SDS011;18905;42.668;23.364;2022-08-19T09:19:18;9.00;;;4.40;;
28625;SDS011;18905;42.668;23.364;2022-08-19T09:21:44;14.10;;;4.90;;
28625;SDS011;18905;42.668;23.364;2022-08-19T09:24:10;7.43;;;4.40;;
28625;SDS011;18905;42.668;23.364;2022-08-19T09:26:35;9.20;;;4.60;;
28625;SDS011;18905;42.668;23.364;2022-08-19T09:29:01;7.78;;;4.55;;
28625;SDS011;18905;42.668;23.364;2022-08-19T09:31:30;11.20;;;4.72;;
28625;SDS011;18905;42.668;23.364;2022-08-19T09:33:57;6.40;;;4.10;;
28625;SDS011;18905;42.668;23.364;2022-08-19T09:36:24;4.90;;;3.55;;
28625;SDS011;18905;42.668;23.364;2022-08-19T09:38:53;4.57;;;3.40;;
28625;SDS011;18905;42.668;23.364;2022-08-19T09:41:21;4.57;;;2.95;;
28625;SDS011;18905;42.668;23.364;2022-08-19T09:43:49;4.18;;;2.95;;
28625;SDS011;18905;42.668;23.364;2022-08-19T09:46:21;4.57;;;3.13;;
28625;SDS011;18905;42.668;23.364;2022-08-19T09:48:48;4.55;;;3.25;;
28625;SDS011;18905;42.668;23.364;2022-08-19T09:51:18;4.47;;;3.35;;
28625;SDS011;18905;42.668;23.364;2022-08-19T09:53:49;3.75;;;3.40;;
28625;SDS011;18905;42.668;23.364;2022-08-19T09:56:16;6.03;;;3.72;;
28625;SDS011;18905;42.668;23.364;2022-08-19T09:58:43;9.88;;;3.58;;
28625;SDS011;18905;42.668;23.364;2022-08-19T10:01:14;8.48;;;3.40;;
28625;SDS011;18905;42.668;23.364;2022-08-19T10:03:41;4.43;;;3.03;;
28625;SDS011;18905;42.668;23.364;2022-08-19T10:06:07;8.82;;;3.72;;
28625;SDS011;18905;42.668;23.364;2022-08-19T10:08:35;9.52;;;3.25;;
28625;SDS011;18905;42.668;23.364;2022-08-19T10:11:02;4.75;;;3.10;;
28625;SDS011;18905;42.668;23.364;2022-08-19T10:13:29;6.13;;;3.65;;
28625;SDS011;18905;42.668;23.364;2022-08-19T10:16:01;10.07;;;4.32;;
28625;SDS011;18905;42.668;23.364;2022-08-19T10:18:32;7.00;;;3.58;;
28625;SDS011;18905;42.668;23.364;2022-08-19T10:21:03;10.00;;;5.25;;
28625;SDS011;18905;42.668;23.364;2022-08-19T10:23:34;4.88;;;3.50;;
28625;SDS011;18905;42.668;23.364;2022-08-19T10:26:01;10.65;;;4.40;;
28625;SDS011;18905;42.668;23.364;2022-08-19T10:28:28;5.72;;;3.90;;
28625;SDS011;18905;42.668;23.364;2022-08-19T10:30:53;10.32;;;3.58;;
28625;SDS011;18905;42.668;23.364;2022-08-19T10:33:18;10.70;;;3.72;;
28625;SDS011;18905;42.668;23.364;2022-08-19T10:35:44;8.30;;;3.80;;
28625;SDS011;18905;42.668;23.364;2022-08-19T10:38:11;7.30;;;3.80;;
28625;SDS011;18905;42.668;23.364;2022-08-19T10:40:37;7.43;;;4.25;;
28625;SDS011;18905;42.668;23.364;2022-08-19T10:43:02;6.55;;;4.07;;
28625;SDS011;18905;42.668;23.364;2022-08-19T10:45:28;9.60;;;3.78;;
28625;SDS011;18905;42.668;23.364;2022-08-19T10:47:53;5.63;;;3.60;;
28625;SDS011;18905;42.668;23.364;2022-08-19T10:50:19;5.60;;;4.07;;
28625;SDS011;18905;42.668;23.364;2022-08-19T10:53:03;5.85;;;3.60;;
28625;SDS011;18905;42.668;23.364;2022-08-19T10:55:30;11.32;;;4.53;;
28625;SDS011;18905;42.668;23.364;2022-08-19T10:58:15;11.48;;;4.28;;
28625;SDS011;18905;42.668;23.364;2022-08-19T11:00:42;9.88;;;4.00;;
28625;SDS011;18905;42.668;23.364;2022-08-19T11:03:15;9.70;;;4.18;;
28625;SDS011;18905;42.668;23.364;2022-08-19T11:05:40;14.63;;;4.30;;
28625;SDS011;18905;42.668;23.364;2022-08-19T11:08:06;9.90;;;4.22;;
28625;SDS011;18905;42.668;23.364;2022-08-19T11:10:36;4.80;;;4.03;;
28625;SDS011;18905;42.668;23.364;2022-08-19T11:13:01;5.32;;;3.97;;
28625;SDS011;18905;42.668;23.364;2022-08-19T11:15:28;4.80;;;3.75;;
28625;SDS011;18905;42.668;23.364;2022-08-19T11:17:55;15.35;;;3.95;;
28625;SDS011;18905;42.668;23.364;2022-08-19T11:20:20;7.50;;;4.00;;
28625;SDS011;18905;42.668;23.364;2022-08-19T11:22:46;9.27;;;3.78;;
28625;SDS011;18905;42.668;23.364;2022-08-19T11:25:11;9.38;;;4.43;;
28625;SDS011;18905;42.668;23.364;2022-08-19T11:27:39;10.43;;;3.80;;
28625;SDS011;18905;42.668;23.364;2022-08-19T11:30:08;7.22;;;3.97;;
28625;SDS011;18905;42.668;23.364;2022-08-19T11:32:35;12.50;;;4.90;;
28625;SDS011;18905;42.668;23.364;2022-08-19T11:35:00;7.93;;;3.80;;
28625;SDS011;18905;42.668;23.364;2022-08-19T11:37:26;7.53;;;4.03;;
28625;SDS011;18905;42.668;23.364;2022-08-19T11:39:52;6.55;;;4.00;;
28625;SDS011;18905;42.668;23.364;2022-08-19T11:42:17;5.28;;;3.83;;
28625;SDS011;18905;42.668;23.364;2022-08-19T11:45:01;7.50;;;3.70;;
28625;SDS011;18905;42.668;23.364;2022-08-19T11:47:29;9.60;;;4.63;;
28625;SDS011;18905;42.668;23.364;2022-08-19T11:49:55;7.28;;;4.30;;
28625;SDS011;18905;42.668;23.364;2022-08-19T11:52:21;5.13;;;4.28;;
28625;SDS011;18905;42.668;23.364;2022-08-19T11:54:46;8.38;;;4.22;;
28625;SDS011;18905;42.668;23.364;2022-08-19T11:57:12;5.95;;;4.10;;
28625;SDS011;18905;42.668;23.364;2022-08-19T11:59:39;7.28;;;4.22;;
28625;SDS011;18905;42.668;23.364;2022-08-19T12:02:05;6.55;;;4.15;;
28625;SDS011;18905;42.668;23.364;2022-08-19T12:04:30;7.28;;;4.07;;
28625;SDS011;18905;42.668;23.364;2022-08-19T12:06:56;7.13;;;4.22;;
28625;SDS011;18905;42.668;23.364;2022-08-19T12:09:21;4.88;;;4.38;;
28625;SDS011;18905;42.668;23.364;2022-08-19T12:11:47;6.78;;;4.38;;
28625;SDS011;18905;42.668;23.364;2022-08-19T12:14:12;5.05;;;4.25;;
28625;SDS011;18905;42.668;23.364;2022-08-19T12:16:39;7.40;;;4.28;;
28625;SDS011;18905;42.668;23.364;2022-08-19T12:19:06;6.97;;;4.10;;
28625;SDS011;18905;42.668;23.364;2022-08-19T12:21:33;6.85;;;4.53;;
28625;SDS011;18905;42.668;23.364;2022-08-19T12:24:00;5.57;;;4.07;;
28625;SDS011;18905;42.668;23.364;2022-08-19T12:26:27;6.25;;;4.30;;
28625;SDS011;18905;42.668;23.364;2022-08-19T12:28:54;7.25;;;4.13;;
28625;SDS011;18905;42.668;23.364;2022-08-19T12:31:20;6.10;;;4.25;;
28625;SDS011;18905;42.668;23.364;2022-08-19T12:33:46;9.18;;;4.18;;
28625;SDS011;18905;42.668;23.364;2022-08-19T12:36:15;8.98;;;4.32;;
28625;SDS011;18905;42.668;23.364;2022-08-19T12:38:42;5.38;;;4.28;;
28625;SDS011;18905;42.668;23.364;2022-08-19T12:41:10;8.25;;;4.78;;
28625;SDS011;18905;42.668;23.364;2022-08-19T12:43:37;6.50;;;4.65;;
28625;SDS011;18905;42.668;23.364;2022-08-19T12:46:03;10.65;;;4.50;;
28625;SDS011;18905;42.668;23.364;2022-08-19T12:48:30;6.20;;;4.55;;
28625;SDS011;18905;42.668;23.364;2022-08-19T12:50:56;7.95;;;4.68;;
28625;SDS011;18905;42.668;23.364;2022-08-19T12:53:22;7.18;;;4.53;;
28625;SDS011;18905;42.668;23.364;2022-08-19T12:55:53;8.40;;;4.50;;
28625;SDS011;18905;42.668;23.364;2022-08-19T12:58:21;9.48;;;5.22;;
28625;SDS011;18905;42.668;23.364;2022-08-19T13:00:46;7.82;;;4.47;;
28625;SDS011;18905;42.668;23.364;2022-08-19T13:03:12;5.97;;;4.68;;
28625;SDS011;18905;42.668;23.364;2022-08-19T13:05:38;10.07;;;4.40;;
28625;SDS011;18905;42.668;23.364;2022-08-19T13:08:03;6.00;;;4.78;;
28625;SDS011;18905;42.668;23.364;2022-08-19T13:10:31;8.48;;;4.32;;
28625;SDS011;18905;42.668;23.364;2022-08-19T13:13:02;7.25;;;4.45;;
28625;SDS011;18905;42.668;23.364;2022-08-19T13:15:32;9.93;;;4.50;;
28625;SDS011;18905;42.668;23.364;2022-08-19T13:17:59;6.43;;;4.22;;
28625;SDS011;18905;42.668;23.364;2022-08-19T13:20:24;5.97;;;4.50;;
28625;SDS011;18905;42.668;23.364;2022-08-19T13:22:50;8.20;;;4.88;;
28625;SDS011;18905;42.668;23.364;2022-08-19T13:25:16;7.25;;;4.75;;
28625;SDS011;18905;42.668;23.364;2022-08-19T13:27:44;5.40;;;4.20;;
28625;SDS011;18905;42.668;23.364;2022-08-19T13:30:11;10.25;;;5.00;;
28625;SDS011;18905;42.668;23.364;2022-08-19T13:32:56;6.35;;;4.35;;
28625;SDS011;18905;42.668;23.364;2022-08-19T13:35:37;12.98;;;4.28;;
28625;SDS011;18905;42.668;23.364;2022-08-19T13:38:04;5.20;;;4.43;;
28625;SDS011;18905;42.668;23.364;2022-08-19T13:40:30;7.07;;;4.38;;
28625;SDS011;18905;42.668;23.364;2022-08-19T13:42:58;12.02;;;4.78;;
28625;SDS011;18905;42.668;23.364;2022-08-19T13:45:24;10.50;;;4.53;;
28625;SDS011;18905;42.668;23.364;2022-08-19T13:47:52;9.00;;;4.82;;
28625;SDS011;18905;42.668;23.364;2022-08-19T13:50:20;8.73;;;4.53;;
28625;SDS011;18905;42.668;23.364;2022-08-19T13:52:47;9.07;;;4.70;;
28625;SDS011;18905;42.668;23.364;2022-08-19T13:55:13;9.30;;;4.43;;
28625;SDS011;18905;42.668;23.364;2022-08-19T13:57:40;7.82;;;4.55;;
28625;SDS011;18905;42.668;23.364;2022-08-19T14:00:11;7.30;;;4.32;;
28625;SDS011;18905;42.668;23.364;2022-08-19T14:02:40;9.82;;;4.63;;
28625;SDS011;18905;42.668;23.364;2022-08-19T14:05:08;8.57;;;4.70;;
28625;SDS011;18905;42.668;23.364;2022-08-19T14:07:34;7.75;;;4.75;;
28625;SDS011;18905;42.668;23.364;2022-08-19T14:10:00;9.60;;;4.60;;
28625;SDS011;18905;42.668;23.364;2022-08-19T14:12:26;6.95;;;4.40;;
28625;SDS011;18905;42.668;23.364;2022-08-19T14:14:52;9.45;;;4.80;;
28625;SDS011;18905;42.668;23.364;2022-08-19T14:17:17;8.55;;;4.65;;
28625;SDS011;18905;42.668;23.364;2022-08-19T14:19:43;8.02;;;4.75;;
28625;SDS011;18905;42.668;23.364;2022-08-19T14:22:08;14.00;;;4.80;;
28625;SDS011;18905;42.668;23.364;2022-08-19T14:24:34;9.77;;;5.25;;
28625;SDS011;18905;42.668;23.364;2022-08-19T14:27:03;8.60;;;5.00;;
28625;SDS011;18905;42.668;23.364;2022-08-19T14:29:28;7.35;;;4.75;;
28625;SDS011;18905;42.668;23.364;2022-08-19T14:31:54;8.32;;;4.72;;
28625;SDS011;18905;42.668;23.364;2022-08-19T14:34:21;12.38;;;4.97;;
28625;SDS011;18905;42.668;23.364;2022-08-19T14:36:47;6.68;;;4.18;;
28625;SDS011;18905;42.668;23.364;2022-08-19T14:39:12;8.93;;;4.80;;
28625;SDS011;18905;42.668;23.364;2022-08-19T14:41:39;6.40;;;4.60;;
28625;SDS011;18905;42.668;23.364;2022-08-19T14:44:07;10.75;;;4.30;;
28625;SDS011;18905;42.668;23.364;2022-08-19T14:46:35;8.95;;;5.07;;
28625;SDS011;18905;42.668;23.364;2022-08-19T14:49:00;8.98;;;4.75;;
28625;SDS011;18905;42.668;23.364;2022-08-19T14:51:26;6.78;;;4.57;;
28625;SDS011;18905;42.668;23.364;2022-08-19T14:53:51;10.32;;;4.72;;